Time;durP1;ratioP1;P1;durP2;ratioP2;P2;SDS_P1;SDS_P2;PMS_P1;PMS_P2;Temp;Humidity;BMP_temperature;BMP_pressure;BME280_temperature;BME280_humidity;BME280_pressure;Samples;Min_cycle;Max_cycle;Signal;HPM_P1;HPM_P2
2022/07/17 00:00:42;;;;;;;3.53;1.80;;;;;;;;;;4902478;29;20240;-85
2022/07/17 00:03:15;;;;;;;2.67;1.83;;;;;;;;;;4901623;29;20229;-84
2022/07/17 00:05:42;;;;;;;3.33;2.00;;;;;;;;;;4913896;29;20232;-85
2022/07/17 00:08:07;;;;;;;4.17;1.70;;;;;;;;;;4891843;29;20667;-85
2022/07/17 00:10:34;;;;;;;5.83;2.27;;;;;;;;;;4907217;29;20233;-86
2022/07/17 00:12:59;;;;;;;2.87;1.53;;;;;;;;;;4886610;29;20229;-87
2022/07/17 00:15:25;;;;;;;3.03;1.70;;;;;;;;;;4888698;29;20217;-86
2022/07/17 00:17:53;;;;;;;5.90;1.90;;;;;;;;;;4888442;29;20229;-87
2022/07/17 00:20:21;;;;;;;7.03;1.97;;;;;;;;;;4913928;29;20224;-86
2022/07/17 00:22:48;;;;;;;4.37;2.00;;;;;;;;;;4904669;29;20224;-87
2022/07/17 00:25:14;;;;;;;4.47;2.10;;;;;;;;;;4910955;29;20604;-87
2022/07/17 00:27:39;;;;;;;2.73;1.60;;;;;;;;;;4908559;29;20227;-86
2022/07/17 00:30:05;;;;;;;4.03;1.80;;;;;;;;;;4912611;29;20793;-87
2022/07/17 00:32:34;;;;;;;3.00;1.70;;;;;;;;;;4932059;29;20235;-87
2022/07/17 00:35:00;;;;;;;3.13;1.83;;;;;;;;;;4890398;29;20232;-87
2022/07/17 00:37:28;;;;;;;3.23;1.63;;;;;;;;;;4928005;29;20304;-87
2022/07/17 00:39:58;;;;;;;1.90;1.70;;;;;;;;;;4904805;29;20224;-87
2022/07/17 00:42:24;;;;;;;6.40;1.90;;;;;;;;;;4898875;29;20283;-87
2022/07/17 00:44:52;;;;;;;3.87;2.00;;;;;;;;;;4920515;29;20225;-87
2022/07/17 00:47:19;;;;;;;3.77;1.93;;;;;;;;;;4921637;29;20698;-87
2022/07/17 00:49:45;;;;;;;2.37;1.60;;;;;;;;;;4896379;29;20248;-86
2022/07/17 00:52:14;;;;;;;3.70;1.67;;;;;;;;;;4905192;29;20239;-87
2022/07/17 00:54:43;;;;;;;2.87;1.60;;;;;;;;;;4885970;29;20229;-87
2022/07/17 00:57:11;;;;;;;4.70;1.70;;;;;;;;;;4903444;29;20653;-87
2022/07/17 00:59:42;;;;;;;3.37;1.87;;;;;;;;;;4893975;29;20269;-86
2022/07/17 01:02:08;;;;;;;2.23;1.67;;;;;;;;;;4907766;29;20242;-85
2022/07/17 01:04:34;;;;;;;2.93;1.70;;;;;;;;;;4889631;29;20235;-86
2022/07/17 01:07:00;;;;;;;4.57;1.97;;;;;;;;;;4886646;29;20228;-84
2022/07/17 01:09:31;;;;;;;3.67;1.90;;;;;;;;;;4928214;29;20260;-84
2022/07/17 01:11:57;;;;;;;3.60;2.00;;;;;;;;;;4962515;28;20243;-83
2022/07/17 01:14:23;;;;;;;2.30;1.70;;;;;;;;;;4934342;29;20256;-85
2022/07/17 01:16:49;;;;;;;2.83;1.63;;;;;;;;;;4931811;29;20268;-84
2022/07/17 01:19:14;;;;;;;2.40;1.60;;;;;;;;;;4905215;29;20236;-84
2022/07/17 01:21:42;;;;;;;3.57;1.80;;;;;;;;;;4913247;29;20252;-84
2022/07/17 01:24:13;;;;;;;4.20;1.93;;;;;;;;;;4917109;29;20219;-84
2022/07/17 01:26:46;;;;;;;5.83;2.03;;;;;;;;;;4918451;29;20261;-83
2022/07/17 01:29:12;;;;;;;4.80;2.00;;;;;;;;;;4946167;29;20232;-84
2022/07/17 01:31:40;;;;;;;3.47;2.03;;;;;;;;;;4931484;29;20239;-86
2022/07/17 01:34:09;;;;;;;4.47;2.00;;;;;;;;;;4924788;29;20236;-85
2022/07/17 01:36:35;;;;;;;3.93;2.27;;;;;;;;;;4924750;29;20300;-84
2022/07/17 01:39:03;;;;;;;6.17;2.20;;;;;;;;;;4928559;29;20780;-84
2022/07/17 01:42:05;;;;;;;3.70;2.10;;;;;;;;;;4915370;29;20228;-84
2022/07/17 01:44:30;;;;;;;3.07;2.00;;;;;;;;;;4930587;29;20236;-85
2022/07/17 01:46:58;;;;;;;4.20;2.20;;;;;;;;;;4900167;29;20472;-84
2022/07/17 01:49:25;;;;;;;2.43;1.87;;;;;;;;;;4914095;29;20229;-84
2022/07/17 01:51:51;;;;;;;2.13;1.60;;;;;;;;;;4897814;29;20247;-85
2022/07/17 01:54:18;;;;;;;4.27;1.70;;;;;;;;;;4895679;29;20236;-86
2022/07/17 01:56:44;;;;;;;3.67;1.50;;;;;;;;;;4910570;29;20345;-86
2022/07/17 01:59:09;;;;;;;2.73;1.60;;;;;;;;;;4917232;29;20235;-86
2022/07/17 02:01:37;;;;;;;4.30;1.80;;;;;;;;;;4900662;29;20253;-88
2022/07/17 02:04:02;;;;;;;2.13;1.50;;;;;;;;;;4918746;29;20384;-84
2022/07/17 02:06:28;;;;;;;2.13;1.57;;;;;;;;;;4892816;29;20233;-85
2022/07/17 02:08:53;;;;;;;3.17;1.60;;;;;;;;;;4888847;29;20777;-86
2022/07/17 02:11:21;;;;;;;3.77;1.80;;;;;;;;;;4890024;29;20243;-83
2022/07/17 02:13:46;;;;;;;2.30;1.67;;;;;;;;;;4878724;29;20232;-85
2022/07/17 02:16:14;;;;;;;5.10;1.87;;;;;;;;;;4897670;29;20228;-86
2022/07/17 02:18:40;;;;;;;6.73;2.47;;;;;;;;;;4892426;29;20219;-85
2022/07/17 02:21:08;;;;;;;3.17;1.93;;;;;;;;;;4935653;29;20239;-85
2022/07/17 02:23:34;;;;;;;5.87;2.20;;;;;;;;;;4893210;29;20247;-84
2022/07/17 02:25:59;;;;;;;8.77;2.33;;;;;;;;;;4893509;29;20230;-86
2022/07/17 02:28:29;;;;;;;4.47;2.20;;;;;;;;;;4915711;29;20316;-84
2022/07/17 02:30:57;;;;;;;4.87;2.07;;;;;;;;;;4900872;29;20239;-84
2022/07/17 02:33:22;;;;;;;4.33;2.20;;;;;;;;;;4914846;29;20216;-86
2022/07/17 02:35:50;;;;;;;6.67;2.50;;;;;;;;;;4913952;29;20232;-85
2022/07/17 02:38:16;;;;;;;5.67;2.07;;;;;;;;;;4898254;29;20217;-86
2022/07/17 02:40:44;;;;;;;4.40;2.00;;;;;;;;;;4913139;29;20284;-86
2022/07/17 02:43:12;;;;;;;4.13;2.30;;;;;;;;;;4914219;29;20227;-85
2022/07/17 02:45:37;;;;;;;5.60;2.50;;;;;;;;;;4900511;29;20303;-85
2022/07/17 02:48:03;;;;;;;4.67;2.30;;;;;;;;;;4915426;29;20224;-84
2022/07/17 02:50:29;;;;;;;3.57;2.33;;;;;;;;;;4888385;29;20220;-83
2022/07/17 02:52:54;;;;;;;4.63;2.00;;;;;;;;;;4899306;29;20238;-85
2022/07/17 02:55:22;;;;;;;3.87;2.37;;;;;;;;;;4918450;29;20216;-85
2022/07/17 02:57:48;;;;;;;2.80;2.43;;;;;;;;;;4883305;29;20232;-86
2022/07/17 03:00:15;;;;;;;4.87;2.33;;;;;;;;;;4903094;29;20228;-83
2022/07/17 03:02:41;;;;;;;5.87;2.20;;;;;;;;;;4878925;29;20971;-84
2022/07/17 03:05:07;;;;;;;5.07;2.23;;;;;;;;;;4900369;29;20243;-84
2022/07/17 03:07:37;;;;;;;4.30;2.30;;;;;;;;;;4883370;29;20220;-85
2022/07/17 03:10:06;;;;;;;6.57;2.47;;;;;;;;;;4936327;29;20221;-85
2022/07/17 03:12:34;;;;;;;5.90;2.40;;;;;;;;;;4891863;29;20701;-85
2022/07/17 03:15:02;;;;;;;3.87;1.90;;;;;;;;;;4897884;29;20228;-85
2022/07/17 03:17:28;;;;;;;3.97;1.83;;;;;;;;;;4915623;29;20235;-84
2022/07/17 03:19:53;;;;;;;2.93;2.10;;;;;;;;;;4915036;29;20625;-85
2022/07/17 03:22:19;;;;;;;4.10;2.10;;;;;;;;;;4911038;29;20232;-85
2022/07/17 03:24:44;;;;;;;3.13;2.27;;;;;;;;;;4881874;29;20235;-85
2022/07/17 03:27:12;;;;;;;4.60;2.37;;;;;;;;;;4915659;29;20232;-85
2022/07/17 03:29:37;;;;;;;2.43;2.23;;;;;;;;;;4898621;29;20251;-85
2022/07/17 03:32:06;;;;;;;4.93;2.33;;;;;;;;;;4892411;29;20233;-85
2022/07/17 03:34:34;;;;;;;5.23;2.40;;;;;;;;;;4900741;29;20224;-85
2022/07/17 03:36:59;;;;;;;3.40;2.10;;;;;;;;;;4905219;29;20296;-85
2022/07/17 03:39:29;;;;;;;6.40;2.20;;;;;;;;;;4900913;29;20838;-86
2022/07/17 03:41:57;;;;;;;6.27;2.33;;;;;;;;;;4901375;29;20232;-83
2022/07/17 03:44:22;;;;;;;4.83;2.63;;;;;;;;;;4891517;29;20267;-85
2022/07/17 03:46:48;;;;;;;5.77;2.40;;;;;;;;;;4893802;29;20228;-86
2022/07/17 03:49:13;;;;;;;5.40;2.53;;;;;;;;;;4901504;29;20251;-84
2022/07/17 03:51:39;;;;;;;4.23;2.23;;;;;;;;;;4892216;29;20238;-86
2022/07/17 03:54:04;;;;;;;6.97;2.83;;;;;;;;;;4905639;29;20237;-84
2022/07/17 03:56:35;;;;;;;5.73;2.57;;;;;;;;;;4910673;29;20220;-85
2022/07/17 03:59:00;;;;;;;4.13;2.37;;;;;;;;;;4873467;29;20246;-84
2022/07/17 04:01:26;;;;;;;2.80;2.30;;;;;;;;;;4896868;29;20228;-84
2022/07/17 04:03:54;;;;;;;5.53;2.40;;;;;;;;;;4898305;29;20665;-86
2022/07/17 04:06:21;;;;;;;4.90;2.37;;;;;;;;;;4916001;29;20237;-83
2022/07/17 04:08:47;;;;;;;3.60;2.17;;;;;;;;;;4881061;29;20244;-83
2022/07/17 04:11:17;;;;;;;7.17;2.80;;;;;;;;;;4902609;29;20240;-84
2022/07/17 04:13:45;;;;;;;3.00;2.30;;;;;;;;;;4903375;29;20256;-84
2022/07/17 04:16:10;;;;;;;10.47;2.73;;;;;;;;;;4927435;29;20228;-84
2022/07/17 04:18:36;;;;;;;4.73;2.60;;;;;;;;;;4899898;29;20292;-84
2022/07/17 04:21:03;;;;;;;5.30;2.60;;;;;;;;;;4901518;29;20236;-84
2022/07/17 04:23:29;;;;;;;4.67;2.60;;;;;;;;;;4914990;29;20232;-84
2022/07/17 04:25:55;;;;;;;5.07;2.33;;;;;;;;;;4921757;29;20232;-85
2022/07/17 04:28:20;;;;;;;6.53;2.80;;;;;;;;;;4916252;29;20647;-84
2022/07/17 04:30:46;;;;;;;4.90;2.30;;;;;;;;;;4914173;29;20225;-85
2022/07/17 04:33:12;;;;;;;3.43;2.50;;;;;;;;;;4884218;29;20569;-84
2022/07/17 04:35:42;;;;;;;6.43;2.63;;;;;;;;;;4895505;29;20221;-83
2022/07/17 04:38:08;;;;;;;4.03;2.40;;;;;;;;;;4907504;29;20232;-84
2022/07/17 04:40:34;;;;;;;6.57;2.70;;;;;;;;;;4906946;29;20269;-83
2022/07/17 04:43:00;;;;;;;3.83;2.40;;;;;;;;;;4912087;29;20229;-84
2022/07/17 04:45:25;;;;;;;5.17;2.67;;;;;;;;;;4900327;29;20575;-84
2022/07/17 04:47:51;;;;;;;6.37;2.70;;;;;;;;;;4898897;29;20582;-85
2022/07/17 04:50:19;;;;;;;3.97;2.50;;;;;;;;;;4927600;29;20656;-85
2022/07/17 04:52:47;;;;;;;7.57;2.63;;;;;;;;;;4927996;29;20224;-87
2022/07/17 04:55:12;;;;;;;3.80;2.57;;;;;;;;;;4900001;29;20708;-85
2022/07/17 04:57:38;;;;;;;4.90;2.27;;;;;;;;;;4914416;29;20233;-85
2022/07/17 05:00:05;;;;;;;5.73;2.43;;;;;;;;;;4914398;29;20236;-85
2022/07/17 05:02:30;;;;;;;4.50;2.70;;;;;;;;;;4929361;29;20225;-87
2022/07/17 05:04:56;;;;;;;4.60;2.60;;;;;;;;;;4896023;29;20236;-85
2022/07/17 05:07:24;;;;;;;4.07;2.50;;;;;;;;;;4916778;29;20227;-85
2022/07/17 05:09:49;;;;;;;5.97;2.90;;;;;;;;;;4900922;29;20615;-84
2022/07/17 05:12:18;;;;;;;4.87;2.90;;;;;;;;;;4923978;29;20225;-85
2022/07/17 05:14:43;;;;;;;4.73;2.40;;;;;;;;;;4905517;29;20243;-85
2022/07/17 05:17:09;;;;;;;4.23;2.43;;;;;;;;;;4909614;29;20225;-86
2022/07/17 05:19:37;;;;;;;4.83;2.70;;;;;;;;;;4901772;29;20243;-85
2022/07/17 05:22:03;;;;;;;4.90;2.77;;;;;;;;;;4915489;29;20243;-85
2022/07/17 05:24:28;;;;;;;4.27;2.50;;;;;;;;;;4920952;29;20248;-85
2022/07/17 05:26:54;;;;;;;7.93;2.87;;;;;;;;;;4903926;29;20764;-86
2022/07/17 05:29:20;;;;;;;6.30;2.53;;;;;;;;;;4900769;29;20607;-86
2022/07/17 05:31:50;;;;;;;8.87;2.80;;;;;;;;;;4889311;29;20240;-86
2022/07/17 05:34:16;;;;;;;7.43;2.60;;;;;;;;;;4900488;29;20236;-85
2022/07/17 05:36:43;;;;;;;5.00;2.77;;;;;;;;;;4908305;29;20257;-86
2022/07/17 05:39:10;;;;;;;4.77;2.70;;;;;;;;;;4899881;29;20232;-84
2022/07/17 05:41:35;;;;;;;8.97;2.60;;;;;;;;;;4916125;29;20224;-84
2022/07/17 05:44:04;;;;;;;3.70;2.40;;;;;;;;;;4918063;29;20588;-84
2022/07/17 05:46:30;;;;;;;5.00;2.57;;;;;;;;;;4910213;29;20310;-86
2022/07/17 05:48:55;;;;;;;8.17;3.00;;;;;;;;;;4908628;29;20738;-86
2022/07/17 05:51:24;;;;;;;5.27;2.63;;;;;;;;;;4893997;29;20718;-84
2022/07/17 05:53:49;;;;;;;6.03;2.40;;;;;;;;;;4889980;29;20302;-85
2022/07/17 05:56:18;;;;;;;6.35;2.65;;;;;;;;;;4892687;29;20236;-85
2022/07/17 05:58:46;;;;;;;3.72;2.33;;;;;;;;;;4899492;29;20228;-84
2022/07/17 06:01:11;;;;;;;3.07;2.40;;;;;;;;;;4910875;29;20251;-87
2022/07/17 06:03:37;;;;;;;5.63;2.80;;;;;;;;;;4888627;29;20224;-85
2022/07/17 06:06:06;;;;;;;5.93;2.15;;;;;;;;;;4895212;29;20231;-85
2022/07/17 06:08:32;;;;;;;4.70;2.60;;;;;;;;;;4918010;29;20777;-86
2022/07/17 06:10:59;;;;;;;4.50;2.35;;;;;;;;;;4887388;29;20232;-85
2022/07/17 06:13:27;;;;;;;6.60;2.60;;;;;;;;;;4903362;29;20225;-85
2022/07/17 06:15:53;;;;;;;5.93;2.60;;;;;;;;;;4910428;29;20260;-86
2022/07/17 06:18:23;;;;;;;7.70;2.47;;;;;;;;;;4930745;29;20230;-84
2022/07/17 06:20:54;;;;;;;5.53;2.10;;;;;;;;;;4892424;29;20271;-85
2022/07/17 06:23:22;;;;;;;5.07;2.53;;;;;;;;;;4894366;29;20228;-85
2022/07/17 06:25:48;;;;;;;3.87;2.20;;;;;;;;;;4933734;29;20307;-84
2022/07/17 06:28:13;;;;;;;4.40;2.37;;;;;;;;;;4909355;29;20231;-83
2022/07/17 06:30:39;;;;;;;8.68;2.25;;;;;;;;;;4885725;29;20246;-81
2022/07/17 06:33:09;;;;;;;4.03;2.30;;;;;;;;;;4911446;29;20227;-82
2022/07/17 06:35:34;;;;;;;7.65;2.50;;;;;;;;;;4893707;29;20759;-82
2022/07/17 06:38:01;;;;;;;4.28;2.20;;;;;;;;;;4904862;29;20227;-82
2022/07/17 06:40:29;;;;;;;6.90;2.33;;;;;;;;;;4913532;29;20296;-82
2022/07/17 06:42:55;;;;;;;4.30;2.25;;;;;;;;;;4916137;29;20220;-82
2022/07/17 06:45:20;;;;;;;5.35;2.35;;;;;;;;;;4890703;29;20590;-80
2022/07/17 06:47:46;;;;;;;7.15;2.30;;;;;;;;;;4928780;29;20228;-80
2022/07/17 06:50:11;;;;;;;3.80;2.00;;;;;;;;;;4932946;29;20630;-82
2022/07/17 06:52:39;;;;;;;5.60;2.17;;;;;;;;;;4893910;29;20220;-83
2022/07/17 06:55:05;;;;;;;4.55;2.55;;;;;;;;;;4912151;29;20228;-81
2022/07/17 06:57:31;;;;;;;3.00;2.00;;;;;;;;;;4917132;29;20227;-82
2022/07/17 06:59:57;;;;;;;7.80;2.20;;;;;;;;;;4925681;29;20234;-82
2022/07/17 07:02:25;;;;;;;6.55;2.10;;;;;;;;;;4894767;29;20280;-82
2022/07/17 07:04:53;;;;;;;4.90;1.90;;;;;;;;;;4917593;29;20764;-82
2022/07/17 07:07:18;;;;;;;6.43;2.13;;;;;;;;;;4916920;29;20228;-83
2022/07/17 07:09:44;;;;;;;6.70;1.80;;;;;;;;;;4895516;29;20234;-83
2022/07/17 07:12:09;;;;;;;5.10;1.83;;;;;;;;;;4879873;29;20227;-86
2022/07/17 07:14:37;;;;;;;8.35;1.67;;;;;;;;;;4898379;29;20231;-87
2022/07/17 07:17:03;;;;;;;3.65;1.70;;;;;;;;;;4920179;29;20228;-84
2022/07/17 07:19:31;;;;;;;4.75;1.77;;;;;;;;;;4884285;29;20693;-86
2022/07/17 07:21:58;;;;;;;4.82;1.70;;;;;;;;;;4933789;29;20301;-86
2022/07/17 07:24:24;;;;;;;8.20;2.00;;;;;;;;;;4894717;29;20219;-87
2022/07/17 07:26:49;;;;;;;4.57;1.75;;;;;;;;;;4914133;29;20683;-84
2022/07/17 07:29:18;;;;;;;3.83;1.55;;;;;;;;;;4892007;29;20709;-85
2022/07/17 07:31:47;;;;;;;4.38;1.70;;;;;;;;;;4892735;29;20709;-86
2022/07/17 07:34:13;;;;;;;7.90;1.65;;;;;;;;;;4893641;29;20320;-85
2022/07/17 07:36:38;;;;;;;4.18;2.20;;;;;;;;;;4902116;29;20244;-85
2022/07/17 07:39:06;;;;;;;3.88;1.70;;;;;;;;;;4902187;29;20229;-87
2022/07/17 07:41:32;;;;;;;6.93;1.67;;;;;;;;;;4901778;29;20224;-88
2022/07/17 07:44:00;;;;;;;5.50;1.50;;;;;;;;;;4905319;29;20231;-87
2022/07/17 07:46:26;;;;;;;9.57;1.77;;;;;;;;;;4896541;28;20227;-86
2022/07/17 07:48:51;;;;;;;10.60;1.80;;;;;;;;;;4911728;29;20236;-86
2022/07/17 07:51:20;;;;;;;5.40;1.58;;;;;;;;;;4902748;29;20220;-86
2022/07/17 07:53:45;;;;;;;2.33;1.40;;;;;;;;;;4933416;29;20235;-85
2022/07/17 07:56:12;;;;;;;6.00;1.88;;;;;;;;;;4907600;29;20215;-86
2022/07/17 07:58:38;;;;;;;5.88;1.80;;;;;;;;;;4887080;29;20248;-86
2022/07/17 08:01:09;;;;;;;6.00;1.85;;;;;;;;;;4893328;29;20239;-86
2022/07/17 08:03:35;;;;;;;6.85;1.55;;;;;;;;;;4890236;29;20580;-85
2022/07/17 08:06:00;;;;;;;4.00;1.80;;;;;;;;;;4902958;29;20248;-86
2022/07/17 08:08:26;;;;;;;6.90;1.65;;;;;;;;;;4908891;29;20261;-85
2022/07/17 08:10:52;;;;;;;5.03;1.58;;;;;;;;;;4905052;29;20225;-85
2022/07/17 08:13:20;;;;;;;4.57;1.42;;;;;;;;;;4917434;29;20276;-85
2022/07/17 08:15:46;;;;;;;6.32;1.90;;;;;;;;;;4924828;29;20248;-84
2022/07/17 08:18:11;;;;;;;4.32;1.58;;;;;;;;;;4913821;29;20288;-85
2022/07/17 08:20:37;;;;;;;4.53;1.55;;;;;;;;;;4911405;29;20225;-83
2022/07/17 08:23:03;;;;;;;3.42;1.58;;;;;;;;;;4912006;29;20232;-81
2022/07/17 08:25:28;;;;;;;6.40;2.00;;;;;;;;;;4927677;29;20757;-84
2022/07/17 08:27:54;;;;;;;5.38;1.77;;;;;;;;;;4924072;29;20236;-82
2022/07/17 08:30:19;;;;;;;3.70;1.58;;;;;;;;;;4903736;29;20235;-83
2022/07/17 08:32:47;;;;;;;3.17;1.30;;;;;;;;;;4890758;29;20256;-85
2022/07/17 08:35:15;;;;;;;5.97;1.83;;;;;;;;;;4908889;29;20225;-85
2022/07/17 08:37:48;;;;;;;2.65;1.20;;;;;;;;;;4928201;29;20241;-83
2022/07/17 08:40:28;;;;;;;6.15;1.45;;;;;;;;;;4941538;28;20296;-84
2022/07/17 08:42:59;;;;;;;5.53;1.38;;;;;;;;;;4928379;29;20598;-84
2022/07/17 08:45:27;;;;;;;2.80;1.20;;;;;;;;;;4901826;29;20232;-85
2022/07/17 08:47:56;;;;;;;4.78;1.33;;;;;;;;;;4909571;29;20224;-86
2022/07/17 08:50:29;;;;;;;4.28;1.40;;;;;;;;;;4932312;29;20303;-83
2022/07/17 08:52:57;;;;;;;6.85;1.40;;;;;;;;;;4888072;29;20322;-83
2022/07/17 08:55:23;;;;;;;5.47;1.52;;;;;;;;;;4884876;29;20228;-83
2022/07/17 08:57:48;;;;;;;3.55;1.50;;;;;;;;;;4919171;29;20299;-84
2022/07/17 09:00:15;;;;;;;3.58;1.48;;;;;;;;;;4897697;29;20766;-83
2022/07/17 09:02:58;;;;;;;7.68;1.40;;;;;;;;;;4929424;29;20236;-85
2022/07/17 09:05:31;;;;;;;3.53;1.35;;;;;;;;;;4893937;29;20229;-84
2022/07/17 09:07:57;;;;;;;4.40;1.50;;;;;;;;;;4882301;29;20696;-86
2022/07/17 09:10:39;;;;;;;6.32;1.63;;;;;;;;;;4918216;23;20294;-78
2022/07/17 09:13:17;;;;;;;3.13;1.20;;;;;;;;;;4914573;28;20223;-75
2022/07/17 09:15:45;;;;;;;5.85;1.58;;;;;;;;;;4921078;28;20677;-74
2022/07/17 09:18:12;;;;;;;3.65;1.60;;;;;;;;;;4898116;29;20313;-73
2022/07/17 09:20:50;;;;;;;4.43;1.30;;;;;;;;;;4912657;29;20228;-72
2022/07/17 09:23:20;;;;;;;2.72;1.50;;;;;;;;;;4889127;29;20258;-75
2022/07/17 09:25:47;;;;;;;4.13;1.70;;;;;;;;;;4912488;29;20318;-75
2022/07/17 09:28:16;;;;;;;3.90;1.73;;;;;;;;;;4903820;29;20593;-75
2022/07/17 09:30:45;;;;;;;4.53;1.67;;;;;;;;;;4880971;29;20257;-75
2022/07/17 09:33:22;;;;;;;5.07;1.60;;;;;;;;;;4926928;29;20898;-76
2022/07/17 09:35:55;;;;;;;3.15;1.40;;;;;;;;;;4910316;29;20246;-73
2022/07/17 09:38:38;;;;;;;3.25;1.48;;;;;;;;;;4914757;29;20232;-75
2022/07/17 09:41:09;;;;;;;4.53;1.60;;;;;;;;;;4893738;29;20225;-76
2022/07/17 09:43:54;;;;;;;3.53;1.08;;;;;;;;;;4912401;29;20737;-75
2022/07/17 09:46:21;;;;;;;2.42;1.33;;;;;;;;;;4928095;29;20228;-74
2022/07/17 09:49:00;;;;;;;5.85;1.38;;;;;;;;;;4884653;29;20259;-75
2022/07/17 09:51:29;;;;;;;4.00;1.52;;;;;;;;;;4884969;29;20593;-74
2022/07/17 09:53:57;;;;;;;3.60;1.50;;;;;;;;;;4910777;29;20232;-73
2022/07/17 09:56:25;;;;;;;4.70;1.75;;;;;;;;;;4887722;28;20927;-76
2022/07/17 09:58:56;;;;;;;4.13;1.45;;;;;;;;;;4923932;29;20223;-74
2022/07/17 10:01:22;;;;;;;2.42;1.30;;;;;;;;;;4890820;28;20234;-75
2022/07/17 10:03:51;;;;;;;4.25;1.65;;;;;;;;;;4915386;29;20220;-74
2022/07/17 10:06:21;;;;;;;3.10;1.48;;;;;;;;;;4926231;29;20239;-75
2022/07/17 10:08:52;;;;;;;6.15;1.80;;;;;;;;;;4912792;29;20247;-73
2022/07/17 10:11:20;;;;;;;5.03;1.45;;;;;;;;;;4917371;28;20960;-75
2022/07/17 10:13:46;;;;;;;2.88;1.55;;;;;;;;;;4907905;29;20219;-75
2022/07/17 10:16:14;;;;;;;3.05;1.42;;;;;;;;;;4914810;29;20357;-75
2022/07/17 10:18:44;;;;;;;4.78;1.38;;;;;;;;;;4884232;29;20706;-73
2022/07/17 10:21:11;;;;;;;2.42;1.30;;;;;;;;;;4909580;29;20315;-74
2022/07/17 10:23:39;;;;;;;5.28;1.40;;;;;;;;;;4915135;29;20279;-73
2022/07/17 10:26:09;;;;;;;4.75;1.45;;;;;;;;;;4911385;29;20299;-75
2022/07/17 10:28:40;;;;;;;4.10;1.70;;;;;;;;;;4910488;29;20248;-74
2022/07/17 10:31:06;;;;;;;7.30;1.67;;;;;;;;;;4912386;29;20956;-75
2022/07/17 10:33:34;;;;;;;2.30;1.30;;;;;;;;;;4925279;29;20221;-75
2022/07/17 10:36:02;;;;;;;6.82;1.60;;;;;;;;;;4896120;29;20228;-75
2022/07/17 10:38:27;;;;;;;4.03;1.33;;;;;;;;;;4926398;29;20246;-74
2022/07/17 10:41:06;;;;;;;4.65;1.40;;;;;;;;;;4924230;29;20243;-73
2022/07/17 10:43:47;;;;;;;2.53;1.35;;;;;;;;;;4895265;29;20706;-76
2022/07/17 10:46:13;;;;;;;3.40;1.30;;;;;;;;;;4903205;29;20215;-75
2022/07/17 10:48:38;;;;;;;4.82;1.42;;;;;;;;;;4912869;29;20255;-77
2022/07/17 10:51:06;;;;;;;3.03;1.42;;;;;;;;;;4923687;29;20223;-79
2022/07/17 10:53:35;;;;;;;3.90;1.10;;;;;;;;;;4919996;29;20272;-74
2022/07/17 10:56:08;;;;;;;2.63;1.40;;;;;;;;;;4902917;29;20318;-75
2022/07/17 10:58:40;;;;;;;4.88;1.52;;;;;;;;;;4915299;29;20216;-76
2022/07/17 11:01:09;;;;;;;3.92;1.35;;;;;;;;;;4913497;29;20303;-75
2022/07/17 11:03:44;;;;;;;5.07;1.30;;;;;;;;;;4914121;29;20874;-75
2022/07/17 11:06:16;;;;;;;2.85;1.13;;;;;;;;;;4921986;29;20220;-75
2022/07/17 11:08:43;;;;;;;3.20;1.30;;;;;;;;;;4913728;29;20295;-74
2022/07/17 11:11:09;;;;;;;4.60;1.50;;;;;;;;;;4912634;29;20306;-75
2022/07/17 11:13:37;;;;;;;2.85;1.25;;;;;;;;;;4931542;28;20224;-75
2022/07/17 11:16:03;;;;;;;3.95;1.45;;;;;;;;;;4933693;28;20239;-77
2022/07/17 11:18:31;;;;;;;4.28;1.30;;;;;;;;;;4902133;29;20216;-76
2022/07/17 11:21:00;;;;;;;4.00;1.65;;;;;;;;;;4921144;29;20234;-78
2022/07/17 11:23:30;;;;;;;5.00;1.35;;;;;;;;;;4934256;29;20232;-75
2022/07/17 11:25:56;;;;;;;1.27;0.95;;;;;;;;;;4903057;29;20236;-76
2022/07/17 11:28:30;;;;;;;2.22;1.10;;;;;;;;;;4916867;29;20241;-74
2022/07/17 11:30:56;;;;;;;6.05;1.35;;;;;;;;;;4933456;29;21024;-73
2022/07/17 11:33:21;;;;;;;4.40;1.17;;;;;;;;;;4916109;29;20914;-73
2022/07/17 11:35:49;;;;;;;2.42;1.25;;;;;;;;;;4902836;29;20231;-72
2022/07/17 11:38:15;;;;;;;2.80;1.00;;;;;;;;;;4908357;29;20299;-73
2022/07/17 11:40:49;;;;;;;2.50;1.50;;;;;;;;;;4915517;29;20292;-75
2022/07/17 11:43:15;;;;;;;3.45;1.40;;;;;;;;;;4919802;29;20282;-75
2022/07/17 11:45:43;;;;;;;3.65;1.40;;;;;;;;;;4918471;29;20669;-73
2022/07/17 11:48:14;;;;;;;3.03;1.42;;;;;;;;;;4900260;29;20729;-74
2022/07/17 11:50:39;;;;;;;2.80;1.20;;;;;;;;;;4882363;29;20251;-75
2022/07/17 11:53:05;;;;;;;6.63;1.60;;;;;;;;;;4913534;29;20911;-74
2022/07/17 11:55:40;;;;;;;5.95;1.60;;;;;;;;;;4902792;29;20224;-75
2022/07/17 11:58:06;;;;;;;3.78;1.40;;;;;;;;;;4905596;29;20254;-75
2022/07/17 12:00:34;;;;;;;2.53;1.35;;;;;;;;;;4915231;29;20219;-75
2022/07/17 12:03:06;;;;;;;2.45;1.20;;;;;;;;;;4915058;29;20234;-75
2022/07/17 12:05:34;;;;;;;2.85;1.30;;;;;;;;;;4898656;29;20236;-75
2022/07/17 12:08:02;;;;;;;2.08;1.30;;;;;;;;;;4915324;29;20231;-74
2022/07/17 12:10:29;;;;;;;2.33;1.10;;;;;;;;;;4912627;29;20422;-77
2022/07/17 12:12:58;;;;;;;5.40;1.55;;;;;;;;;;4931296;29;20220;-75
2022/07/17 12:15:43;;;;;;;2.85;1.40;;;;;;;;;;4915927;29;20346;-74
2022/07/17 12:18:28;;;;;;;3.00;1.30;;;;;;;;;;4913549;29;20209;-75
2022/07/17 12:20:58;;;;;;;1.92;1.20;;;;;;;;;;4916854;29;20224;-74
2022/07/17 12:23:31;;;;;;;4.22;1.45;;;;;;;;;;4896432;29;20228;-76
2022/07/17 12:26:14;;;;;;;2.75;1.35;;;;;;;;;;4912858;29;20722;-77
2022/07/17 12:28:40;;;;;;;3.05;1.48;;;;;;;;;;4926156;29;20301;-75
2022/07/17 12:31:08;;;;;;;2.30;1.40;;;;;;;;;;4910012;29;20228;-75
2022/07/17 12:33:34;;;;;;;1.85;1.13;;;;;;;;;;4922964;29;20227;-75
2022/07/17 12:35:59;;;;;;;2.40;1.25;;;;;;;;;;4899446;29;20243;-73
2022/07/17 12:38:25;;;;;;;2.85;1.30;;;;;;;;;;4908325;29;20228;-76
2022/07/17 12:40:55;;;;;;;3.30;1.25;;;;;;;;;;4913297;29;20806;-76
2022/07/17 12:43:21;;;;;;;2.88;1.23;;;;;;;;;;4929516;28;20664;-75
2022/07/17 12:45:49;;;;;;;2.10;1.10;;;;;;;;;;4898475;29;20269;-77
2022/07/17 12:48:19;;;;;;;2.20;1.23;;;;;;;;;;4900192;29;20315;-75
2022/07/17 12:50:44;;;;;;;3.25;1.17;;;;;;;;;;4916721;29;20228;-74
2022/07/17 12:53:10;;;;;;;4.88;1.60;;;;;;;;;;4908200;29;20224;-76
2022/07/17 12:55:38;;;;;;;2.08;1.27;;;;;;;;;;4928975;29;20287;-75
2022/07/17 12:58:09;;;;;;;5.38;1.30;;;;;;;;;;4911300;29;20228;-77
2022/07/17 13:00:37;;;;;;;4.32;1.40;;;;;;;;;;4911935;29;20303;-74
2022/07/17 13:03:03;;;;;;;2.55;1.33;;;;;;;;;;4898316;29;20665;-74
2022/07/17 13:05:34;;;;;;;2.25;1.20;;;;;;;;;;4912960;29;20287;-75
2022/07/17 13:07:59;;;;;;;4.35;1.42;;;;;;;;;;4933869;29;20227;-74
2022/07/17 13:10:25;;;;;;;4.18;1.30;;;;;;;;;;4934000;28;20231;-74
2022/07/17 13:12:51;;;;;;;1.40;0.90;;;;;;;;;;4915675;29;20235;-74
2022/07/17 13:15:17;;;;;;;2.75;1.10;;;;;;;;;;4930060;28;20223;-74
2022/07/17 13:17:42;;;;;;;2.30;1.40;;;;;;;;;;4915625;29;20287;-76
2022/07/17 13:20:11;;;;;;;2.95;1.40;;;;;;;;;;4910642;29;20232;-76
2022/07/17 13:22:39;;;;;;;4.85;1.27;;;;;;;;;;4928406;29;20279;-76
2022/07/17 13:25:09;;;;;;;2.75;1.17;;;;;;;;;;4911182;29;20236;-74
2022/07/17 13:27:35;;;;;;;1.75;0.90;;;;;;;;;;4927293;29;20224;-76
2022/07/17 13:30:03;;;;;;;3.92;1.02;;;;;;;;;;4911667;29;20250;-75
2022/07/17 13:32:29;;;;;;;3.55;1.13;;;;;;;;;;4898064;29;20236;-77
2022/07/17 13:34:59;;;;;;;2.33;0.90;;;;;;;;;;4911427;29;20749;-74
2022/07/17 13:37:25;;;;;;;1.70;1.15;;;;;;;;;;4912426;29;20726;-75
2022/07/17 13:39:51;;;;;;;1.48;1.00;;;;;;;;;;4927357;29;20352;-75
2022/07/17 13:42:19;;;;;;;1.70;1.10;;;;;;;;;;4892826;29;20326;-76
2022/07/17 13:44:49;;;;;;;2.03;1.13;;;;;;;;;;4905559;29;20236;-73
2022/07/17 13:47:15;;;;;;;3.00;1.10;;;;;;;;;;4905579;28;20599;-74
2022/07/17 13:49:40;;;;;;;2.78;1.35;;;;;;;;;;4895072;29;20240;-74
2022/07/17 13:52:06;;;;;;;2.22;1.13;;;;;;;;;;4896899;29;20227;-75
2022/07/17 13:54:33;;;;;;;0.80;0.80;;;;;;;;;;4914791;29;20681;-74
2022/07/17 13:57:01;;;;;;;1.80;1.10;;;;;;;;;;4913239;29;20361;-73
2022/07/17 13:59:27;;;;;;;1.50;0.98;;;;;;;;;;4918918;29;20216;-76
2022/07/17 14:01:52;;;;;;;2.83;0.98;;;;;;;;;;4918867;29;20754;-76
2022/07/17 14:04:21;;;;;;;1.90;1.00;;;;;;;;;;4886461;29;20232;-73
2022/07/17 14:06:46;;;;;;;1.10;1.00;;;;;;;;;;4928206;29;20243;-76
2022/07/17 14:09:12;;;;;;;1.75;1.10;;;;;;;;;;4910438;29;20232;-75
2022/07/17 14:11:39;;;;;;;1.83;1.02;;;;;;;;;;4910036;29;20220;-75
2022/07/17 14:14:09;;;;;;;1.95;1.15;;;;;;;;;;4910413;29;20242;-74
2022/07/17 14:16:35;;;;;;;2.25;1.17;;;;;;;;;;4912038;29;20228;-72
2022/07/17 14:19:01;;;;;;;3.10;1.33;;;;;;;;;;4928814;29;20636;-73
2022/07/17 14:21:34;;;;;;;1.30;0.90;;;;;;;;;;4926375;29;20224;-74
2022/07/17 14:24:06;;;;;;;3.22;1.20;;;;;;;;;;4898743;29;20228;-75
2022/07/17 14:26:35;;;;;;;1.73;1.00;;;;;;;;;;4894648;29;20224;-74
2022/07/17 14:29:05;;;;;;;1.48;1.05;;;;;;;;;;4900872;29;20319;-74
2022/07/17 14:31:30;;;;;;;1.85;1.10;;;;;;;;;;4914945;29;20698;-76
2022/07/17 14:34:01;;;;;;;2.97;1.20;;;;;;;;;;4909443;29;20298;-71
2022/07/17 14:36:27;;;;;;;4.03;1.27;;;;;;;;;;4917038;29;20612;-76
2022/07/17 14:38:55;;;;;;;2.22;1.08;;;;;;;;;;4918462;29;20235;-73
2022/07/17 14:41:21;;;;;;;2.15;0.90;;;;;;;;;;4881386;29;20295;-74
2022/07/17 14:43:46;;;;;;;1.50;0.93;;;;;;;;;;4918126;29;20233;-75
2022/07/17 14:46:12;;;;;;;2.85;1.08;;;;;;;;;;4899203;29;20290;-73